createdAt,value
2019-05-02T00:02:02.463Z,97.30
2019-05-02T00:04:31.193Z,97.10
2019-05-02T00:07:04.036Z,97.00
2019-05-02T00:09:33.917Z,97.00
2019-05-02T00:12:03.441Z,96.90
2019-05-02T00:14:32.197Z,96.90
2019-05-02T00:17:00.844Z,97.00
2019-05-02T00:19:29.483Z,96.80
2019-05-02T00:21:58.556Z,96.60
2019-05-02T00:24:27.294Z,96.60
2019-05-02T00:27:00.799Z,96.80
2019-05-02T00:29:26.264Z,97.00
2019-05-02T00:31:54.911Z,97.10
2019-05-02T00:34:25.712Z,97.30
2019-05-02T00:36:54.374Z,97.50
2019-05-02T00:39:23.085Z,97.70
2019-05-02T00:41:51.736Z,97.50
2019-05-02T00:44:22.926Z,97.40
2019-05-02T00:46:51.903Z,97.20
2019-05-02T00:49:23.277Z,97.20
2019-05-02T00:51:51.996Z,97.30
2019-05-02T00:54:24.120Z,97.50
2019-05-02T00:56:50.892Z,97.50
2019-05-02T00:59:19.519Z,97.60
2019-05-02T01:01:52.589Z,97.60
2019-05-02T01:04:23.252Z,97.80
2019-05-02T01:07:02.337Z,97.80
2019-05-02T01:09:31.960Z,98.00
2019-05-02T01:12:03.095Z,98.30
2019-05-02T01:14:31.823Z,98.40
2019-05-02T01:17:01.576Z,98.60
2019-05-02T01:19:32.142Z,99.40
2019-05-02T01:22:00.880Z,99.70
2019-05-02T01:24:34.247Z,99.30
2019-05-02T01:27:08.226Z,99.40
2019-05-02T01:29:38.456Z,99.70
2019-05-02T01:32:11.425Z,99.90
2019-05-02T01:34:41.778Z,99.60
2019-05-02T01:37:30.075Z,99.50
2019-05-02T01:40:01.424Z,99.60
2019-05-02T01:42:39.704Z,99.20
2019-05-02T01:45:00.311Z,99.00
2019-05-02T01:47:34.188Z,98.90
2019-05-02T01:50:00.292Z,99.00
2019-05-02T01:52:28.964Z,98.70
2019-05-02T01:54:57.451Z,98.30
2019-05-02T01:57:26.128Z,98.40
2019-05-02T02:00:04.307Z,98.60
2019-05-02T02:02:36.612Z,98.60
2019-05-02T02:05:07.517Z,98.40
2019-05-02T02:07:36.159Z,98.40
2019-05-02T02:10:06.565Z,98.20
2019-05-02T02:12:35.555Z,97.80
2019-05-02T02:15:05.462Z,97.50
2019-05-02T02:17:34.067Z,97.40
2019-05-02T02:20:04.351Z,98.30
2019-05-02T02:22:41.105Z,98.60
2019-05-02T02:25:26.839Z,98.80
2019-05-02T02:27:59.724Z,98.90
2019-05-02T02:30:26.611Z,98.60
2019-05-02T02:33:00.551Z,98.50
2019-05-02T02:35:31.720Z,98.70
2019-05-02T02:38:00.413Z,98.40
2019-05-02T02:40:33.534Z,98.90
2019-05-02T02:43:12.710Z,99.10
2019-05-02T02:45:40.131Z,99.90
2019-05-02T02:48:08.766Z,99.80
2019-05-02T02:50:43.203Z,99.20
2019-05-02T02:53:07.996Z,98.90
2019-05-02T02:55:36.558Z,98.80
2019-05-02T02:58:06.610Z,98.60
2019-05-02T03:00:41.524Z,98.50
2019-05-02T03:03:09.417Z,98.20
2019-05-02T03:05:38.023Z,98.50
2019-05-02T03:08:07.262Z,98.50
2019-05-02T03:10:56.649Z,98.80
2019-05-02T03:13:26.928Z,98.60
2019-05-02T03:16:07.049Z,98.10
2019-05-02T03:18:39.499Z,99.00
2019-05-02T03:21:01.222Z,99.60
2019-05-02T03:23:30.335Z,99.70
2019-05-02T03:25:59.026Z,99.90
2019-05-02T03:28:27.720Z,99.70
2019-05-02T03:30:59.378Z,99.10
2019-05-02T03:33:28.505Z,99.50
2019-05-02T03:35:58.115Z,99.90
2019-05-02T03:38:32.739Z,99.80
2019-05-02T03:41:00.134Z,99.30
2019-05-02T03:43:31.889Z,99.20
2019-05-02T03:46:05.811Z,99.90
2019-05-02T03:48:35.454Z,99.90
2019-05-02T03:51:05.196Z,99.90
2019-05-02T03:53:34.544Z,99.90
2019-05-02T03:56:10.472Z,99.80
2019-05-02T03:58:35.548Z,99.30
2019-05-02T04:01:09.932Z,99.30
2019-05-02T04:03:44.499Z,99.10
2019-05-02T04:06:31.908Z,99.00
2019-05-02T04:09:05.670Z,99.80
2019-05-02T04:11:44.022Z,99.90
2019-05-02T04:14:17.787Z,99.90
2019-05-02T04:16:55.108Z,99.90
2019-05-02T04:19:36.669Z,99.90
2019-05-02T04:22:22.525Z,99.90
2019-05-02T04:25:00.772Z,99.90
2019-05-02T04:27:36.157Z,99.90
2019-05-02T04:30:11.394Z,99.90
2019-05-02T04:32:35.840Z,99.90
2019-05-02T04:35:05.513Z,99.90
2019-05-02T04:37:41.179Z,99.90
2019-05-02T04:40:12.165Z,99.90
2019-05-02T04:42:50.391Z,99.90
2019-05-02T04:45:24.408Z,99.90
2019-05-02T04:47:54.899Z,99.90
2019-05-02T04:50:18.453Z,99.90
2019-05-02T04:52:53.633Z,99.90
2019-05-02T04:55:30.255Z,99.90
2019-05-02T04:57:54.310Z,99.90
2019-05-02T05:00:28.947Z,99.60
2019-05-02T05:03:28.302Z,99.10
2019-05-02T05:06:06.834Z,98.50
2019-05-02T05:08:32.158Z,98.00
2019-05-02T05:11:07.944Z,98.30
2019-05-02T05:13:37.390Z,99.90
2019-05-02T05:16:15.672Z,99.90
2019-05-02T05:19:10.916Z,96.00
2019-05-02T05:22:18.247Z,96.10
2019-05-02T05:24:58.233Z,96.30
2019-05-02T05:27:29.709Z,93.90
2019-05-02T05:30:07.950Z,92.20
2019-05-02T05:32:39.009Z,93.80
2019-05-02T05:35:09.025Z,92.70
2019-05-02T05:37:43.429Z,90.20
2019-05-02T05:40:13.589Z,88.80
2019-05-02T05:42:48.212Z,90.30
2019-05-02T05:45:18.078Z,90.50
2019-05-02T05:47:47.926Z,90.30
2019-05-02T05:50:22.636Z,89.60
2019-05-02T05:52:51.955Z,87.90
2019-05-02T05:55:24.225Z,84.90
2019-05-02T05:57:59.485Z,83.40
2019-05-02T06:00:23.195Z,85.50
2019-05-02T06:02:56.285Z,90.50
2019-05-02T06:05:22.416Z,90.70
2019-05-02T06:07:51.088Z,90.00
2019-05-02T06:10:20.065Z,87.10
2019-05-02T06:12:48.902Z,88.00
2019-05-02T06:15:17.484Z,87.10
2019-05-02T06:17:46.078Z,85.40
2019-05-02T06:20:15.514Z,81.90
2019-05-02T06:22:59.939Z,82.10
2019-05-02T06:25:34.611Z,80.90
2019-05-02T06:28:00.258Z,82.60
2019-05-02T06:30:30.705Z,81.90
2019-05-02T06:32:57.217Z,81.00
2019-05-02T06:35:25.811Z,80.70
2019-05-02T06:37:54.405Z,84.90
2019-05-02T06:40:23.020Z,85.80
2019-05-02T06:42:51.587Z,84.40
2019-05-02T06:45:20.480Z,79.00
2019-05-02T06:47:49.083Z,79.00
2019-05-02T06:50:17.928Z,81.90
2019-05-02T06:52:46.538Z,83.70
2019-05-02T06:55:17.757Z,85.10
2019-05-02T06:57:47.981Z,86.90
2019-05-02T07:00:17.741Z,87.90
2019-05-02T07:02:46.345Z,87.70
2019-05-02T07:05:15.100Z,87.70
2019-05-02T07:07:43.748Z,85.00
2019-05-02T07:10:13.000Z,82.60
2019-05-02T07:12:46.149Z,79.80
2019-05-02T07:15:33.642Z,76.20
2019-05-02T07:18:12.104Z,75.30
2019-05-02T07:20:54.211Z,73.00
2019-05-02T07:23:23.282Z,69.80
2019-05-02T07:25:53.987Z,69.60
2019-05-02T07:28:24.199Z,68.50
2019-05-02T07:30:54.774Z,66.50
2019-05-02T07:33:23.746Z,68.90
2019-05-02T07:35:55.323Z,70.80
2019-05-02T07:38:25.619Z,68.20
2019-05-02T07:40:54.306Z,71.10
2019-05-02T07:43:25.344Z,67.10
2019-05-02T07:45:59.728Z,62.50
2019-05-02T07:48:34.757Z,58.70
2019-05-02T07:51:26.996Z,56.00
2019-05-02T07:53:59.249Z,55.30
2019-05-02T07:56:28.443Z,54.60
2019-05-02T07:59:11.087Z,52.40
2019-05-02T08:01:44.908Z,48.30
2019-05-02T08:04:24.217Z,45.10
2019-05-02T08:06:55.121Z,45.00
2019-05-02T08:09:32.828Z,45.70
2019-05-02T08:12:10.480Z,45.40
2019-05-02T08:14:40.327Z,45.60
2019-05-02T08:17:16.125Z,44.90
2019-05-02T08:19:53.942Z,43.90
2019-05-02T08:22:25.623Z,45.20
2019-05-02T08:25:02.575Z,47.20
2019-05-02T08:27:34.739Z,50.40
2019-05-02T08:30:04.448Z,52.80
2019-05-02T08:32:39.305Z,52.10
2019-05-02T08:35:09.374Z,53.50
2019-05-02T08:37:41.031Z,51.30
2019-05-02T08:40:11.047Z,48.90
2019-05-02T08:42:41.572Z,47.30
2019-05-02T08:45:10.404Z,45.20
2019-05-02T08:47:39.090Z,46.10
2019-05-02T08:50:08.863Z,47.40
2019-05-02T08:52:44.213Z,49.60
2019-05-02T08:55:13.129Z,51.20
2019-05-02T08:57:41.812Z,52.00
2019-05-02T09:00:12.847Z,56.00
2019-05-02T09:02:42.211Z,58.70
2019-05-02T09:05:14.637Z,57.20
2019-05-02T09:07:43.396Z,55.20
2019-05-02T09:10:21.076Z,54.30
2019-05-02T09:12:49.688Z,53.80
2019-05-02T09:15:18.427Z,53.00
2019-05-02T09:17:54.905Z,52.70
2019-05-02T09:20:20.759Z,53.10
2019-05-02T09:22:52.197Z,53.40
2019-05-02T09:25:18.761Z,52.30
2019-05-02T09:28:03.989Z,51.60
2019-05-02T09:30:32.790Z,51.10
2019-05-02T09:33:04.914Z,53.10
2019-05-02T09:35:32.816Z,55.90
2019-05-02T09:38:01.845Z,55.60
2019-05-02T09:40:31.912Z,54.20
2019-05-02T09:43:02.824Z,54.30
2019-05-02T09:45:37.013Z,54.40
2019-05-02T09:48:07.185Z,53.60
2019-05-02T09:50:35.488Z,54.60
2019-05-02T09:53:07.686Z,55.70
2019-05-02T09:55:36.266Z,56.80
2019-05-02T09:58:19.058Z,57.90
2019-05-02T10:00:45.903Z,59.60
2019-05-02T10:03:16.349Z,61.30
2019-05-02T10:05:45.042Z,62.50
2019-05-02T10:08:14.078Z,65.80
2019-05-02T10:10:46.011Z,67.80
2019-05-02T10:13:14.911Z,69.20
2019-05-02T10:15:43.559Z,70.20
2019-05-02T10:18:14.536Z,71.70
2019-05-02T10:20:42.940Z,72.70
2019-05-02T10:23:19.348Z,73.90
2019-05-02T10:25:48.078Z,75.40
2019-05-02T10:28:22.660Z,77.40
2019-05-02T10:30:52.581Z,77.60
2019-05-02T10:33:27.958Z,78.70
2019-05-02T10:35:54.491Z,79.10
2019-05-02T10:38:23.206Z,79.30
2019-05-02T10:41:01.329Z,79.60
2019-05-02T10:43:25.234Z,80.20
2019-05-02T10:46:01.903Z,81.00
2019-05-02T10:48:34.787Z,81.80
2019-05-02T10:51:25.631Z,81.60
2019-05-02T10:53:57.567Z,81.20
2019-05-02T10:56:32.718Z,81.40
2019-05-02T10:59:05.309Z,81.30
2019-05-02T11:01:36.255Z,81.10
2019-05-02T11:04:07.146Z,79.60
2019-05-02T11:06:45.911Z,80.70
2019-05-02T11:09:16.740Z,80.60
2019-05-02T11:11:43.237Z,82.70
2019-05-02T11:14:15.737Z,83.70
2019-05-02T11:17:08.772Z,85.80
2019-05-02T11:19:46.412Z,86.10
2019-05-02T11:22:15.069Z,86.50
2019-05-02T11:24:43.640Z,88.00
2019-05-02T11:27:12.815Z,87.60
2019-05-02T11:29:42.568Z,88.40
2019-05-02T11:32:14.474Z,86.60
2019-05-02T11:34:52.284Z,85.40
2019-05-02T11:37:22.560Z,86.60
2019-05-02T11:39:59.290Z,85.50
2019-05-02T11:42:27.245Z,85.70
2019-05-02T11:44:54.132Z,85.50
2019-05-02T11:47:26.487Z,87.20
2019-05-02T11:49:55.926Z,87.20
2019-05-02T11:52:33.089Z,86.90
2019-05-02T11:54:59.349Z,87.80
2019-05-02T11:57:30.387Z,90.00
2019-05-02T11:59:59.396Z,90.00
2019-05-02T12:02:36.353Z,89.40
2019-05-02T12:05:10.331Z,89.00
2019-05-02T12:07:38.981Z,89.10
2019-05-02T12:10:08.044Z,90.10
2019-05-02T12:12:36.689Z,88.70
2019-05-02T12:15:07.221Z,89.20
2019-05-02T12:17:37.377Z,87.20
2019-05-02T12:20:06.431Z,87.90
2019-05-02T12:22:35.136Z,87.10
2019-05-02T12:25:04.550Z,88.20
2019-05-02T12:27:34.080Z,88.70
2019-05-02T12:30:03.342Z,88.40
2019-05-02T12:32:33.423Z,90.40
2019-05-02T12:35:02.523Z,90.70
2019-05-02T12:37:32.704Z,90.20
2019-05-02T12:40:02.699Z,90.00
2019-05-02T12:42:33.082Z,89.90
2019-05-02T12:45:02.841Z,90.90
2019-05-02T12:47:31.991Z,90.90
2019-05-02T12:50:02.968Z,90.20
2019-05-02T12:52:32.075Z,90.60
2019-05-02T12:55:02.279Z,91.10
2019-05-02T12:57:32.138Z,90.10
2019-05-02T13:00:02.041Z,90.10
2019-05-02T13:02:52.547Z,90.80
2019-05-02T13:05:22.197Z,89.60
2019-05-02T13:07:56.609Z,90.00
2019-05-02T13:10:26.951Z,88.60
2019-05-02T13:12:55.574Z,88.70
2019-05-02T13:15:24.212Z,90.10
2019-05-02T13:17:52.994Z,90.70
2019-05-02T13:20:24.731Z,90.90
2019-05-02T13:23:06.160Z,90.90
2019-05-02T13:25:36.859Z,90.70
2019-05-02T13:28:05.332Z,92.00
2019-05-02T13:30:42.717Z,92.50
2019-05-02T13:33:07.600Z,92.40
2019-05-02T13:35:37.883Z,93.00
2019-05-02T13:38:06.767Z,93.00
2019-05-02T13:40:41.666Z,92.70
2019-05-02T13:43:12.344Z,92.30
2019-05-02T13:45:46.393Z,92.40
2019-05-02T13:48:15.138Z,90.90
2019-05-02T13:50:43.856Z,92.00
2019-05-02T13:53:22.560Z,91.60
2019-05-02T13:55:54.851Z,91.50
2019-05-02T13:58:28.977Z,92.20
2019-05-02T14:00:53.930Z,92.10
2019-05-02T14:03:22.732Z,92.00
2019-05-02T14:05:53.823Z,91.50
2019-05-02T14:08:27.673Z,90.90
2019-05-02T14:10:57.858Z,91.10
2019-05-02T14:13:28.551Z,90.30
2019-05-02T14:15:57.348Z,90.70
2019-05-02T14:18:28.842Z,90.30
2019-05-02T14:20:57.805Z,91.20
2019-05-02T14:23:27.152Z,90.40
2019-05-02T14:26:04.338Z,90.10
2019-05-02T14:28:36.318Z,90.00
2019-05-02T14:31:03.626Z,88.80
2019-05-02T14:33:33.865Z,87.80
2019-05-02T14:36:02.450Z,88.10
2019-05-02T14:38:33.660Z,87.80
2019-05-02T14:41:05.018Z,86.50
2019-05-02T14:43:56.110Z,86.70
2019-05-02T14:46:37.329Z,87.40
2019-05-02T14:48:56.983Z,87.00
2019-05-02T14:51:28.358Z,85.80
2019-05-02T14:54:07.970Z,84.80
2019-05-02T14:56:47.815Z,84.40
2019-05-02T14:59:19.921Z,83.80
2019-05-02T15:01:53.066Z,82.70
2019-05-02T15:04:23.439Z,82.20
2019-05-02T15:06:52.713Z,83.10
2019-05-02T15:09:26.374Z,83.10
2019-05-02T15:12:02.393Z,83.30
2019-05-02T15:14:34.184Z,83.80
2019-05-02T15:17:03.814Z,85.70
2019-05-02T15:19:33.087Z,85.10
2019-05-02T15:22:02.408Z,88.80
2019-05-02T15:24:37.544Z,87.30
2019-05-02T15:27:13.616Z,88.70
2019-05-02T15:29:41.992Z,90.00
2019-05-02T15:32:14.858Z,89.90
2019-05-02T15:35:02.383Z,91.40
2019-05-02T15:37:32.164Z,92.00
2019-05-02T15:42:32.292Z,92.70
2019-05-02T15:45:01.947Z,94.20
2019-05-02T15:47:32.088Z,94.00
2019-05-02T15:50:02.855Z,94.30
2019-05-02T15:52:32.780Z,93.60
2019-05-02T15:55:03.990Z,93.20
2019-05-02T15:57:38.034Z,93.00
2019-05-02T16:00:09.082Z,92.70
2019-05-02T16:02:38.282Z,92.70
2019-05-02T16:05:11.769Z,93.50
2019-05-02T16:07:44.963Z,93.30
2019-05-02T16:10:13.498Z,92.80
2019-05-02T16:12:43.792Z,91.90
2019-05-02T16:15:21.111Z,91.50
2019-05-02T16:17:45.359Z,91.80
2019-05-02T16:20:24.039Z,91.30
2019-05-02T16:22:55.180Z,90.30
2019-05-02T16:25:26.000Z,90.80
2019-05-02T16:27:57.582Z,90.60
2019-05-02T16:30:47.278Z,90.50
2019-05-02T16:33:17.399Z,88.70
2019-05-02T16:35:51.536Z,87.60
2019-05-02T16:38:22.241Z,88.20
2019-05-02T16:40:57.056Z,88.30
2019-05-02T16:43:27.580Z,89.80
2019-05-02T16:45:56.219Z,90.20
2019-05-02T16:48:42.485Z,90.60
2019-05-02T16:51:31.066Z,90.60
2019-05-02T16:53:55.997Z,91.40
2019-05-02T16:56:26.744Z,91.60
2019-05-02T16:59:02.117Z,91.80
2019-05-02T17:01:42.455Z,91.40
2019-05-02T17:04:19.681Z,91.90
2019-05-02T17:07:06.930Z,92.20
2019-05-02T17:09:52.099Z,92.20
2019-05-02T17:12:23.673Z,92.00
2019-05-02T17:15:13.778Z,91.10
2019-05-02T17:17:46.884Z,90.70
2019-05-02T17:20:17.094Z,89.20
2019-05-02T17:22:50.486Z,87.60
2019-05-02T17:25:28.383Z,88.10
2019-05-02T17:28:01.682Z,88.50
2019-05-02T17:30:38.542Z,89.30
2019-05-02T17:33:07.097Z,89.70
2019-05-02T17:35:34.722Z,89.20
2019-05-02T17:38:05.000Z,90.50
2019-05-02T17:40:46.108Z,90.80
2019-05-02T17:43:22.697Z,90.50
2019-05-02T17:45:51.568Z,90.50
2019-05-02T17:48:20.300Z,90.80
2019-05-02T17:51:02.585Z,91.10
2019-05-02T17:53:33.931Z,91.30
2019-05-02T17:56:03.593Z,91.30
2019-05-02T17:58:34.613Z,91.40
2019-05-02T18:01:04.904Z,91.70
2019-05-02T18:03:48.237Z,91.70
2019-05-02T18:06:35.669Z,92.10
2019-05-02T18:09:08.007Z,91.80
2019-05-02T18:11:44.002Z,91.70
2019-05-02T18:14:21.244Z,92.10
2019-05-02T18:16:51.872Z,92.20
2019-05-02T18:19:21.867Z,91.50
2019-05-02T18:21:50.050Z,92.20
2019-05-02T18:24:18.750Z,91.80
2019-05-02T18:26:47.466Z,91.10
2019-05-02T18:29:16.442Z,90.80
2019-05-02T18:31:57.165Z,90.90
2019-05-02T18:34:26.024Z,91.30
2019-05-02T18:37:03.081Z,91.50
2019-05-02T18:39:34.815Z,91.50
2019-05-02T18:42:03.038Z,91.70
2019-05-02T18:44:32.614Z,91.70
2019-05-02T18:47:02.413Z,91.90
2019-05-02T18:49:32.297Z,92.20
2019-05-02T18:52:01.811Z,92.40
2019-05-02T18:54:48.725Z,92.30
2019-05-02T18:57:24.421Z,92.80
2019-05-02T19:00:02.671Z,92.90
2019-05-02T19:02:35.605Z,93.00
2019-05-02T19:05:06.014Z,93.00
2019-05-02T19:07:54.825Z,93.60
2019-05-02T19:10:23.149Z,93.50
2019-05-02T19:12:56.067Z,93.80
2019-05-02T19:15:23.544Z,93.90
2019-05-02T19:17:53.343Z,93.80
2019-05-02T19:20:32.590Z,92.80
2019-05-02T19:23:07.370Z,92.50
2019-05-02T19:25:36.095Z,92.30
2019-05-02T19:28:06.825Z,92.80
2019-05-02T19:30:39.847Z,93.20
2019-05-02T19:33:08.683Z,93.20
2019-05-02T19:35:42.112Z,93.30
2019-05-02T19:38:08.990Z,93.10
2019-05-02T19:40:37.656Z,93.20
2019-05-02T19:43:07.802Z,93.60
2019-05-02T19:45:37.037Z,93.60
2019-05-02T19:48:05.958Z,93.80
2019-05-02T19:50:43.142Z,93.90
2019-05-02T19:53:18.099Z,94.10
2019-05-02T19:55:42.701Z,94.10
2019-05-02T19:58:36.568Z,94.20
2019-05-02T20:01:05.708Z,94.50
2019-05-02T20:03:47.875Z,94.60
2019-05-02T20:06:16.660Z,95.00
2019-05-02T20:08:45.386Z,95.10
2019-05-02T20:11:14.095Z,95.30
2019-05-02T20:13:42.989Z,95.50
2019-05-02T20:16:26.051Z,95.60
2019-05-02T20:18:58.064Z,95.70
2019-05-02T20:21:34.058Z,95.80
2019-05-02T20:24:04.109Z,95.60
2019-05-02T20:26:33.171Z,95.60
2019-05-02T20:29:05.439Z,95.60
2019-05-02T20:31:34.632Z,95.60
2019-05-02T20:34:05.859Z,95.80
2019-05-02T20:36:36.123Z,95.80
2019-05-02T20:39:08.102Z,96.10
2019-05-02T20:41:36.894Z,96.10
2019-05-02T20:44:05.561Z,96.10
2019-05-02T20:46:34.271Z,96.10
2019-05-02T20:49:04.000Z,96.20
2019-05-02T20:51:32.689Z,96.40
2019-05-02T20:54:02.004Z,96.50
2019-05-02T20:56:33.815Z,96.20
2019-05-02T20:59:04.848Z,96.30
2019-05-02T21:01:36.138Z,96.20
2019-05-02T21:04:04.794Z,96.70
2019-05-02T21:06:50.137Z,97.00
2019-05-02T21:09:23.097Z,97.00
2019-05-02T21:11:53.445Z,96.80
2019-05-02T21:14:22.274Z,96.60
2019-05-02T21:16:51.038Z,96.50
2019-05-02T21:19:21.726Z,97.30
2019-05-02T21:21:52.573Z,98.00
2019-05-02T21:24:22.090Z,97.90
2019-05-02T21:27:01.799Z,97.70
2019-05-02T21:29:36.261Z,97.70
2019-05-02T21:32:04.997Z,97.80
2019-05-02T21:34:34.703Z,98.40
2019-05-02T21:37:03.341Z,98.80
2019-05-02T21:39:34.671Z,98.50
2019-05-02T21:42:03.419Z,98.10
2019-05-02T21:44:32.587Z,98.40
2019-05-02T21:47:02.874Z,98.50
2019-05-02T21:49:44.948Z,99.00
2019-05-02T21:52:22.583Z,99.20
2019-05-02T21:54:53.091Z,98.80
2019-05-02T21:57:24.761Z,98.70
2019-05-02T21:59:52.886Z,98.50
2019-05-02T22:02:22.575Z,98.50
2019-05-02T22:04:57.610Z,98.90
2019-05-02T22:07:32.339Z,98.60
2019-05-02T22:09:59.826Z,98.40
2019-05-02T22:12:31.790Z,98.50
2019-05-02T22:15:03.216Z,98.00
2019-05-02T22:17:32.293Z,98.20
2019-05-02T22:20:01.871Z,98.00
2019-05-02T22:22:31.751Z,98.20
2019-05-02T22:25:02.226Z,98.90
2019-05-02T22:27:47.178Z,98.70
2019-05-02T22:30:23.186Z,98.70
2019-05-02T22:32:55.675Z,98.70
2019-05-02T22:35:26.445Z,98.60
2019-05-02T22:38:05.483Z,99.00
2019-05-02T22:40:36.837Z,98.90
2019-05-02T22:43:14.652Z,98.90
2019-05-02T22:45:43.506Z,99.40
2019-05-02T22:48:14.289Z,99.90
2019-05-02T22:50:43.415Z,99.90
2019-05-02T22:53:13.898Z,99.90
2019-05-02T22:55:42.543Z,99.90
2019-05-02T22:58:13.863Z,99.90
2019-05-02T23:00:45.327Z,99.90
2019-05-02T23:03:24.150Z,99.90
2019-05-02T23:05:52.710Z,99.90
2019-05-02T23:08:21.958Z,99.90
2019-05-02T23:10:52.024Z,99.90
2019-05-02T23:13:21.984Z,99.90
2019-05-02T23:15:53.372Z,99.90
2019-05-02T23:18:28.094Z,99.90
2019-05-02T23:20:56.819Z,99.60
2019-05-02T23:23:28.137Z,98.50
2019-05-02T23:26:10.402Z,98.00
2019-05-02T23:28:42.291Z,97.80
2019-05-02T23:31:11.483Z,99.10
2019-05-02T23:34:01.842Z,99.60
2019-05-02T23:36:32.619Z,99.30
2019-05-02T23:39:05.762Z,98.90
2019-05-02T23:41:42.016Z,99.40
2019-05-02T23:44:12.301Z,99.40
2019-05-02T23:46:51.607Z,99.10
2019-05-02T23:49:22.009Z,99.60
2019-05-02T23:51:52.212Z,99.90
2019-05-02T23:54:22.056Z,99.90
2019-05-02T23:56:50.897Z,99.90
2019-05-02T23:59:19.521Z,99.70
